createdAt,value
2022-09-04T00:00:19.081Z,18.75
2022-09-04T00:02:48.534Z,13.02
2022-09-04T00:05:27.575Z,14.50
2022-09-04T00:08:03.749Z,16.50
2022-09-04T00:10:40.995Z,11.32
2022-09-04T00:13:23.125Z,10.77
2022-09-04T00:16:11.407Z,12.55
2022-09-04T00:18:59.883Z,10.48
2022-09-04T00:21:40.063Z,13.13
2022-09-04T00:24:24.945Z,11.70
2022-09-04T00:26:57.580Z,13.32
2022-09-04T00:29:36.606Z,11.88
2022-09-04T00:32:25.046Z,14.77
2022-09-04T00:35:14.579Z,16.95
2022-09-04T00:37:51.974Z,11.00
2022-09-04T00:40:58.496Z,14.13
2022-09-04T00:43:53.309Z,9.38
2022-09-04T00:46:23.233Z,10.25
2022-09-04T00:49:08.415Z,14.25
2022-09-04T00:51:54.400Z,12.35
2022-09-04T00:57:29.039Z,17.05
2022-09-04T01:00:17.636Z,9.75
2022-09-04T01:03:41.098Z,18.88
2022-09-04T01:06:20.681Z,11.32
2022-09-04T01:09:11.297Z,14.02
2022-09-04T01:11:45.497Z,11.25
2022-09-04T01:14:42.189Z,13.27
2022-09-04T01:17:46.550Z,13.07
2022-09-04T01:20:33.868Z,10.50
2022-09-04T01:23:01.059Z,15.18
2022-09-04T01:25:59.027Z,11.55
2022-09-04T01:28:35.394Z,10.93
2022-09-04T01:31:05.147Z,15.02
2022-09-04T01:34:00.946Z,12.07
2022-09-04T01:36:28.138Z,10.82
2022-09-04T01:39:01.902Z,9.63
2022-09-04T01:41:45.405Z,11.73
2022-09-04T01:44:26.396Z,10.23
2022-09-04T01:47:08.503Z,10.30
2022-09-04T01:49:47.935Z,11.88
2022-09-04T01:52:18.447Z,8.07
2022-09-04T01:55:04.262Z,9.63
2022-09-04T01:57:36.563Z,9.25
2022-09-04T02:00:17.037Z,8.10
2022-09-04T02:03:16.064Z,9.20
2022-09-04T02:06:16.814Z,8.45
2022-09-04T02:08:55.668Z,13.77
2022-09-04T02:11:28.407Z,10.23
2022-09-04T02:14:22.773Z,10.13
2022-09-04T02:17:32.788Z,8.23
2022-09-04T02:20:09.721Z,8.50
2022-09-04T02:22:48.954Z,9.52
2022-09-04T02:25:24.963Z,8.82
2022-09-04T02:28:32.017Z,8.05
2022-09-04T02:31:17.873Z,11.23
2022-09-04T02:34:04.848Z,12.55
2022-09-04T02:37:00.616Z,9.85
2022-09-04T02:39:46.329Z,16.55
2022-09-04T02:42:32.410Z,8.25
2022-09-04T02:45:18.283Z,8.00
2022-09-04T02:51:09.410Z,9.73
2022-09-04T02:53:42.849Z,8.02
2022-09-04T02:56:24.827Z,8.95
2022-09-04T02:58:54.651Z,10.27
2022-09-04T03:01:32.488Z,7.82
2022-09-04T03:04:28.236Z,11.70
2022-09-04T03:07:04.660Z,6.72
2022-09-04T03:09:51.997Z,7.72
2022-09-04T03:12:32.597Z,8.52
2022-09-04T03:15:35.198Z,9.90
2022-09-04T03:18:17.067Z,8.60
2022-09-04T03:21:10.470Z,6.78
2022-09-04T03:23:48.939Z,7.13
2022-09-04T03:26:19.850Z,6.43
2022-09-04T03:29:29.590Z,8.80
2022-09-04T03:32:17.558Z,7.32
2022-09-04T03:35:09.856Z,10.82
2022-09-04T03:38:14.368Z,9.73
2022-09-04T03:41:15.026Z,6.43
2022-09-04T03:44:18.812Z,6.03
2022-09-04T03:47:07.301Z,10.90
2022-09-04T03:49:43.020Z,6.03
2022-09-04T03:52:10.099Z,11.98
2022-09-04T03:54:56.922Z,7.28
2022-09-04T03:57:29.932Z,6.75
2022-09-04T04:00:12.494Z,6.05
2022-09-04T04:02:52.536Z,6.13
2022-09-04T04:05:27.006Z,8.15
2022-09-04T04:08:24.126Z,6.88
2022-09-04T04:11:00.143Z,11.27
2022-09-04T04:13:44.575Z,7.90
2022-09-04T04:16:11.537Z,9.82
2022-09-04T04:18:41.093Z,14.90
2022-09-04T04:21:39.063Z,8.27
2022-09-04T04:24:33.040Z,6.65
2022-09-04T04:27:09.054Z,11.77
2022-09-04T04:29:45.922Z,6.65
2022-09-04T04:32:49.961Z,6.63
2022-09-04T04:35:27.601Z,9.13
2022-09-04T04:38:22.675Z,6.85
2022-09-04T04:41:15.382Z,5.30
2022-09-04T04:44:08.613Z,8.45
2022-09-04T04:47:22.418Z,9.65
2022-09-04T04:50:08.888Z,5.50
2022-09-04T04:52:56.273Z,4.97
2022-09-04T04:55:42.513Z,6.75
2022-09-04T04:58:28.505Z,5.65
2022-09-04T05:01:09.755Z,6.03
2022-09-04T05:04:23.334Z,7.47
2022-09-04T05:07:22.309Z,10.60
2022-09-04T05:10:18.672Z,4.97
2022-09-04T05:13:12.520Z,6.43
2022-09-04T05:16:09.415Z,5.38
2022-09-04T05:19:14.548Z,4.63
2022-09-04T05:22:08.230Z,4.78
2022-09-04T05:25:06.009Z,3.83
2022-09-04T05:27:56.503Z,4.63
2022-09-04T05:30:57.538Z,3.83
2022-09-04T05:33:24.683Z,4.10
2022-09-04T05:36:06.743Z,6.15
2022-09-04T05:39:05.921Z,4.15
2022-09-04T05:41:51.375Z,4.13
2022-09-04T05:44:46.154Z,6.70
2022-09-04T05:47:16.142Z,5.22
2022-09-04T05:50:09.495Z,4.53
2022-09-04T05:53:05.729Z,4.25
2022-09-04T05:58:47.582Z,5.00
2022-09-04T06:01:26.476Z,3.83
2022-09-04T06:03:53.441Z,5.70
2022-09-04T06:07:09.694Z,5.45
2022-09-04T06:10:11.388Z,4.38
2022-09-04T06:12:41.385Z,3.35
2022-09-04T06:15:23.320Z,6.00
2022-09-04T06:18:11.744Z,2.75
2022-09-04T06:20:56.800Z,2.00
2022-09-04T06:24:09.359Z,2.22
2022-09-04T06:26:45.312Z,2.13
2022-09-04T06:29:46.621Z,4.78
2022-09-04T06:32:30.033Z,3.17
2022-09-04T06:35:14.678Z,2.47
2022-09-04T06:37:57.077Z,1.77
2022-09-04T06:40:49.295Z,1.83
2022-09-04T06:43:38.590Z,2.47
2022-09-04T06:46:22.538Z,3.35
2022-09-04T06:49:13.035Z,2.78
2022-09-04T06:51:53.756Z,2.70
2022-09-04T06:55:00.381Z,2.45
2022-09-04T06:57:56.613Z,2.88
2022-09-04T07:00:25.497Z,6.55
2022-09-04T07:03:25.214Z,2.13
2022-09-04T07:05:59.764Z,2.55
2022-09-04T07:09:05.070Z,1.90
2022-09-04T07:11:56.437Z,4.70
2022-09-04T07:14:50.436Z,3.28
2022-09-04T07:18:18.354Z,2.33
2022-09-04T07:21:40.430Z,2.97
2022-09-04T07:24:36.365Z,2.88
2022-09-04T07:27:15.979Z,4.38
2022-09-04T07:30:03.757Z,2.25
2022-09-04T07:32:53.708Z,1.92
2022-09-04T07:35:43.014Z,3.13
2022-09-04T07:38:37.574Z,2.55
2022-09-04T07:41:12.911Z,1.27
2022-09-04T07:44:13.785Z,2.35
2022-09-04T07:50:01.080Z,7.22
2022-09-04T07:52:41.880Z,1.65
2022-09-04T07:55:48.998Z,5.38
2022-09-04T07:58:34.632Z,2.25
2022-09-04T08:03:58.468Z,3.55
2022-09-04T08:06:33.975Z,2.40
2022-09-04T08:09:26.122Z,2.35
2022-09-04T08:12:07.632Z,6.93
2022-09-04T08:14:46.416Z,1.52
2022-09-04T08:17:54.581Z,4.22
2022-09-04T08:20:55.024Z,1.63
2022-09-04T08:23:33.977Z,2.38
2022-09-04T08:26:31.630Z,2.63
2022-09-04T08:28:58.693Z,2.50
2022-09-04T08:31:42.379Z,3.13
2022-09-04T08:34:30.961Z,1.55
2022-09-04T08:37:17.437Z,1.80
2022-09-04T08:40:13.093Z,5.25
2022-09-04T08:42:58.708Z,4.15
2022-09-04T08:48:49.117Z,5.68
2022-09-04T08:51:40.406Z,1.73
2022-09-04T08:54:26.216Z,1.30
2022-09-04T08:57:41.348Z,1.30
2022-09-04T09:00:28.973Z,1.30
2022-09-04T09:03:22.982Z,2.30
2022-09-04T09:06:37.239Z,1.65
2022-09-04T09:09:31.828Z,4.60
2022-09-04T09:12:41.680Z,1.77
2022-09-04T09:15:33.425Z,1.02
2022-09-04T09:18:17.699Z,1.02
2022-09-04T09:21:01.523Z,1.30
2022-09-04T09:23:54.817Z,1.20
2022-09-04T09:26:28.305Z,1.67
2022-09-04T09:29:23.123Z,3.30
2022-09-04T09:31:56.933Z,1.15
2022-09-04T09:35:05.117Z,1.30
2022-09-04T09:37:54.110Z,1.20
2022-09-04T09:40:43.477Z,1.38
2022-09-04T09:43:46.489Z,1.30
2022-09-04T09:46:25.207Z,3.72
2022-09-04T09:49:26.707Z,1.27
2022-09-04T09:52:23.853Z,1.17
2022-09-04T09:55:09.330Z,1.55
2022-09-04T09:57:45.285Z,1.35
2022-09-04T10:00:17.781Z,1.30
2022-09-04T10:03:26.073Z,1.88
2022-09-04T10:06:10.835Z,4.03
2022-09-04T10:08:52.964Z,1.00
2022-09-04T10:11:47.683Z,2.80
2022-09-04T10:14:45.869Z,5.90
2022-09-04T10:17:34.667Z,4.32
2022-09-04T10:20:28.376Z,3.90
2022-09-04T10:23:36.403Z,0.93
2022-09-04T10:26:31.782Z,1.25
2022-09-04T10:29:19.780Z,1.75
2022-09-04T10:32:05.458Z,1.63
2022-09-04T10:34:56.874Z,2.60
2022-09-04T10:38:10.243Z,1.48
2022-09-04T10:40:59.773Z,1.98
2022-09-04T10:44:01.803Z,1.10
2022-09-04T10:46:44.313Z,2.72
2022-09-04T10:53:28.580Z,1.42
2022-09-04T10:56:35.456Z,2.38
2022-09-04T10:59:10.544Z,3.67
2022-09-04T11:01:56.069Z,3.42
2022-09-04T11:05:00.395Z,1.65
2022-09-04T11:07:48.713Z,2.10
2022-09-04T11:10:21.769Z,1.80
2022-09-04T11:13:22.994Z,1.13
2022-09-04T11:16:10.163Z,3.33
2022-09-04T11:19:15.267Z,1.98
2022-09-04T11:21:59.036Z,1.83
2022-09-04T11:24:39.002Z,2.05
2022-09-04T11:27:29.511Z,1.27
2022-09-04T11:30:12.298Z,0.90
2022-09-04T11:32:48.839Z,1.73
2022-09-04T11:35:43.488Z,2.88
2022-09-04T11:38:29.665Z,2.38
2022-09-04T11:40:59.962Z,2.47
2022-09-04T11:43:49.650Z,2.15
2022-09-04T11:46:54.036Z,2.45
2022-09-04T11:50:00.743Z,1.50
2022-09-04T11:52:59.552Z,1.92
2022-09-04T11:55:55.873Z,1.30
2022-09-04T11:58:41.704Z,1.95
2022-09-04T12:01:28.474Z,0.80
2022-09-04T12:04:23.392Z,0.95
2022-09-04T12:07:13.672Z,2.35
2022-09-04T12:10:10.558Z,0.93
2022-09-04T12:13:14.537Z,1.90
2022-09-04T12:16:01.068Z,3.20
2022-09-04T12:19:00.213Z,3.65
2022-09-04T12:21:47.525Z,1.67
2022-09-04T12:24:36.414Z,1.65
2022-09-04T12:27:37.429Z,3.05
2022-09-04T12:30:07.634Z,1.48
2022-09-04T12:33:12.273Z,2.05
2022-09-04T12:36:07.366Z,1.93
2022-09-04T12:39:03.136Z,1.48
2022-09-04T12:41:58.007Z,1.23
2022-09-04T12:44:50.902Z,1.67
2022-09-04T12:47:18.111Z,1.67
2022-09-04T12:50:16.154Z,2.42
2022-09-04T12:53:01.215Z,2.05
2022-09-04T12:55:59.227Z,1.20
2022-09-04T12:58:53.018Z,1.30
2022-09-04T13:01:38.905Z,3.53
2022-09-04T13:04:09.093Z,2.05
2022-09-04T13:06:45.124Z,1.17
2022-09-04T13:09:53.481Z,1.17
2022-09-04T13:12:30.272Z,1.73
2022-09-04T13:15:19.654Z,1.23
2022-09-04T13:18:38.194Z,1.52
2022-09-04T13:21:25.551Z,1.30
2022-09-04T13:24:14.310Z,1.10
2022-09-04T13:27:26.950Z,3.10
2022-09-04T13:30:09.679Z,2.28
2022-09-04T13:33:20.397Z,1.95
2022-09-04T13:36:25.622Z,1.52
2022-09-04T13:39:04.479Z,3.05
2022-09-04T13:41:57.637Z,1.65
2022-09-04T13:45:08.229Z,4.88
2022-09-04T13:47:54.414Z,2.90
2022-09-04T13:55:31.851Z,3.80
2022-09-04T14:33:39.913Z,1.67
2022-09-04T14:37:46.900Z,3.20
2022-09-04T14:41:41.716Z,1.00
2022-09-04T14:44:49.375Z,1.63
2022-09-04T14:51:01.454Z,1.02
2022-09-04T14:53:35.264Z,3.20
2022-09-04T14:56:24.024Z,0.80
2022-09-04T15:00:26.790Z,1.38
2022-09-04T15:13:31.570Z,1.63
2022-09-04T15:19:55.378Z,2.92
2022-09-04T15:22:24.999Z,2.92
2022-09-04T15:25:29.059Z,1.88
2022-09-04T15:32:13.727Z,1.20
2022-09-04T15:34:44.829Z,3.60
2022-09-04T15:37:27.716Z,4.25
2022-09-04T15:40:12.881Z,3.30
2022-09-04T15:43:18.578Z,1.58
2022-09-04T15:45:53.924Z,2.63
2022-09-04T15:52:56.540Z,1.52
2022-09-04T15:59:40.521Z,1.77
2022-09-04T16:03:13.337Z,1.60
2022-09-04T16:06:02.493Z,3.08
2022-09-04T16:08:57.708Z,2.97
2022-09-04T16:12:02.314Z,5.25
2022-09-04T16:14:44.328Z,2.42
2022-09-04T16:17:21.952Z,6.50
2022-09-04T16:20:00.564Z,3.40
2022-09-04T16:22:50.793Z,1.67
2022-09-04T16:25:31.591Z,1.70
2022-09-04T16:28:04.886Z,2.47
2022-09-04T16:30:32.854Z,3.35
2022-09-04T16:33:01.126Z,2.85
2022-09-04T16:35:34.690Z,1.80
2022-09-04T16:38:24.260Z,1.95
2022-09-04T16:41:15.850Z,1.45
2022-09-04T16:44:25.881Z,3.72
2022-09-04T16:47:15.335Z,3.72
2022-09-04T16:50:05.982Z,1.92
2022-09-04T16:52:43.816Z,1.65
2022-09-04T16:55:32.311Z,2.22
2022-09-04T16:58:46.540Z,3.80
2022-09-04T17:01:52.828Z,1.70
2022-09-04T17:04:45.501Z,5.50
2022-09-04T17:07:26.419Z,2.35
2022-09-04T17:10:09.858Z,4.03
2022-09-04T17:12:55.235Z,5.32
2022-09-04T17:16:09.082Z,2.75
2022-09-04T17:18:58.255Z,7.88
2022-09-04T17:29:04.172Z,3.22
2022-09-04T17:29:04.279Z,5.00
2022-09-04T17:36:50.599Z,3.25
2022-09-04T17:40:39.281Z,3.08
2022-09-04T17:40:48.437Z,8.73
2022-09-04T17:44:48.480Z,7.10
2022-09-04T17:47:21.009Z,8.98
2022-09-04T17:49:59.323Z,3.50
2022-09-04T17:52:53.784Z,3.70
2022-09-04T17:55:22.057Z,4.32
2022-09-04T17:58:10.370Z,3.13
2022-09-04T18:01:14.662Z,4.13
2022-09-04T18:04:20.294Z,2.88
2022-09-04T18:13:43.495Z,3.20
2022-09-04T18:19:51.572Z,7.20
2022-09-04T18:22:26.550Z,2.45
2022-09-04T18:25:17.177Z,4.53
2022-09-04T18:28:11.501Z,6.95
2022-09-04T18:37:11.178Z,3.90
2022-09-04T18:37:18.389Z,7.00
2022-09-04T18:37:46.587Z,6.93
2022-09-04T18:40:50.371Z,6.90
2022-09-04T18:50:21.469Z,6.03
2022-09-04T18:50:36.443Z,5.68
2022-09-04T18:50:47.017Z,4.97
2022-09-04T18:52:40.542Z,8.35
2022-09-04T18:58:04.296Z,2.55
2022-09-04T19:01:06.885Z,8.55
2022-09-04T19:05:13.424Z,13.35
2022-09-04T19:50:22.689Z,3.95
2022-09-04T19:53:31.293Z,5.75
2022-09-04T19:55:23.615Z,6.63
2022-09-04T19:58:10.793Z,12.18
2022-09-04T20:03:35.489Z,12.20
2022-09-04T20:06:21.595Z,12.57
2022-09-04T20:09:13.504Z,10.38
2022-09-04T20:11:52.287Z,11.98
2022-09-04T20:14:28.961Z,11.30
2022-09-04T20:16:58.544Z,16.42
2022-09-04T20:19:38.891Z,16.20
2022-09-04T20:22:30.940Z,11.80
2022-09-04T20:25:16.560Z,15.60
2022-09-04T20:28:20.318Z,19.80
2022-09-04T20:31:02.379Z,10.52
2022-09-04T20:33:54.425Z,11.65
2022-09-04T20:36:37.743Z,16.88
2022-09-04T20:39:16.395Z,15.77
2022-09-04T20:42:08.158Z,10.77
2022-09-04T20:46:26.490Z,12.70
2022-09-04T20:52:44.830Z,18.02
2022-09-04T20:52:51.141Z,16.42
2022-09-04T20:54:06.144Z,18.63
2022-09-04T20:59:48.389Z,22.70
2022-09-04T21:03:18.062Z,17.38
2022-09-04T21:03:20.094Z,18.38
2022-09-04T21:06:08.405Z,16.02
2022-09-04T21:08:41.088Z,21.42
2022-09-04T21:11:39.564Z,14.88
2022-09-04T21:14:20.520Z,14.00
2022-09-04T21:17:34.708Z,18.58
2022-09-04T21:20:24.263Z,25.35
2022-09-04T21:23:22.069Z,17.95
2022-09-04T21:25:51.857Z,23.30
2022-09-04T21:28:36.799Z,19.15
2022-09-04T21:31:44.198Z,12.83
2022-09-04T21:34:26.959Z,26.90
2022-09-04T21:37:02.696Z,20.67
2022-09-04T21:39:32.542Z,18.67
2022-09-04T21:42:16.648Z,16.30
2022-09-04T21:45:16.387Z,21.17
2022-09-04T21:48:18.158Z,8.65
2022-09-04T21:50:58.778Z,15.77
2022-09-04T21:53:34.771Z,15.00
2022-09-04T22:02:13.740Z,12.68
2022-09-04T22:02:37.958Z,12.32
2022-09-04T22:02:45.491Z,10.43
2022-09-04T22:05:22.726Z,12.63
2022-09-04T22:11:00.924Z,8.52
2022-09-04T22:13:32.036Z,10.00
2022-09-04T22:14:18.452Z,14.95
2022-09-04T22:19:48.687Z,12.00
2022-09-04T22:22:40.476Z,14.82
2022-09-04T22:25:25.980Z,11.55
2022-09-04T22:28:14.224Z,8.98
2022-09-04T22:31:00.726Z,7.95
2022-09-04T22:34:15.632Z,14.15
2022-09-04T22:37:05.594Z,14.35
2022-09-04T22:39:35.345Z,9.70
2022-09-04T22:42:36.292Z,8.88
2022-09-04T22:45:09.359Z,11.52
2022-09-04T22:48:07.871Z,13.95
2022-09-04T22:50:49.303Z,9.75
2022-09-04T22:53:40.718Z,10.27
2022-09-04T22:56:23.339Z,6.97
2022-09-04T22:59:26.292Z,7.97
2022-09-04T23:02:11.612Z,7.40
2022-09-04T23:04:59.765Z,5.93
2022-09-04T23:12:45.899Z,7.40
2022-09-04T23:13:48.166Z,6.00
2022-09-04T23:14:08.693Z,5.93
2022-09-04T23:16:50.773Z,7.18
2022-09-04T23:22:27.734Z,5.30
2022-09-04T23:26:45.847Z,11.10
2022-09-04T23:26:49.395Z,6.63
2022-09-04T23:28:40.680Z,7.72
2022-09-04T23:31:38.044Z,6.65
2022-09-04T23:34:44.056Z,4.35
2022-09-04T23:37:44.469Z,5.15
2022-09-04T23:40:32.024Z,5.72
2022-09-04T23:43:23.506Z,3.45
2022-09-04T23:46:01.650Z,3.55
2022-09-04T23:48:28.937Z,3.80
2022-09-04T23:51:24.899Z,6.38
2022-09-04T23:54:21.800Z,9.35
2022-09-04T23:57:21.483Z,3.25
